Aviation Digital Data Service (ADDS)

Output produced by METARs form (0851 UTC 03 March 2015)
found at http://aviationweather.gov/adds/metars/
 
KGSP 030550Z 0306/0406 05008KT P6SM OVC025 
     TEMPO 0309/0312 5SM -RADZ BKN014 OVC030 
     FM031200 04008KT 5SM -RA OVC014 
     FM031400 04006KT 4SM -RA OVC008 
     FM031700 05005KT 4SM -RA OVC005 
     FM040100 00000KT 3SM BR OVC003